sensor_id;sensor_type;location;lat;lon;timestamp;temperature;humidity
10278;DHT22;5184;51.376;7.148;2024-02-23T00:01:30;6.20;99.90
10278;DHT22;5184;51.376;7.148;2024-02-23T00:03:56;6.10;99.90
10278;DHT22;5184;51.376;7.148;2024-02-23T00:06:24;6.00;99.90
10278;DHT22;5184;51.376;7.148;2024-02-23T00:08:51;5.90;99.90
10278;DHT22;5184;51.376;7.148;2024-02-23T00:11:18;5.80;99.90
10278;DHT22;5184;51.376;7.148;2024-02-23T00:13:46;5.70;99.90
10278;DHT22;5184;51.376;7.148;2024-02-23T00:16:13;5.50;99.90
10278;DHT22;5184;51.376;7.148;2024-02-23T00:18:40;5.50;99.90
10278;DHT22;5184;51.376;7.148;2024-02-23T00:21:06;5.50;99.90
10278;DHT22;5184;51.376;7.148;2024-02-23T00:23:33;5.60;99.90
10278;DHT22;5184;51.376;7.148;2024-02-23T00:25:59;5.40;99.90
10278;DHT22;5184;51.376;7.148;2024-02-23T00:28:26;5.40;99.90
10278;DHT22;5184;51.376;7.148;2024-02-23T00:30:53;5.40;99.90
10278;DHT22;5184;51.376;7.148;2024-02-23T00:33:19;5.40;99.90
10278;DHT22;5184;51.376;7.148;2024-02-23T00:35:46;5.40;99.90
10278;DHT22;5184;51.376;7.148;2024-02-23T00:38:12;5.40;99.90
10278;DHT22;5184;51.376;7.148;2024-02-23T00:40:40;5.40;99.90
10278;DHT22;5184;51.376;7.148;2024-02-23T00:43:07;5.40;99.90
10278;DHT22;5184;51.376;7.148;2024-02-23T00:45:34;5.40;99.90
10278;DHT22;5184;51.376;7.148;2024-02-23T00:48:02;5.50;99.90
10278;DHT22;5184;51.376;7.148;2024-02-23T00:50:28;5.40;99.90
10278;DHT22;5184;51.376;7.148;2024-02-23T00:52:55;5.50;99.90
10278;DHT22;5184;51.376;7.148;2024-02-23T00:55:22;5.40;99.90
10278;DHT22;5184;51.376;7.148;2024-02-23T00:57:48;5.40;99.90
10278;DHT22;5184;51.376;7.148;2024-02-23T01:00:15;5.50;99.90
10278;DHT22;5184;51.376;7.148;2024-02-23T01:02:42;5.50;99.90
10278;DHT22;5184;51.376;7.148;2024-02-23T01:05:08;5.50;99.90
10278;DHT22;5184;51.376;7.148;2024-02-23T01:07:36;5.50;99.90
10278;DHT22;5184;51.376;7.148;2024-02-23T01:10:02;5.50;99.90
10278;DHT22;5184;51.376;7.148;2024-02-23T01:12:29;5.50;99.90
10278;DHT22;5184;51.376;7.148;2024-02-23T01:14:56;5.50;99.90
10278;DHT22;5184;51.376;7.148;2024-02-23T01:17:22;5.40;99.90
10278;DHT22;5184;51.376;7.148;2024-02-23T01:19:49;5.40;99.90
10278;DHT22;5184;51.376;7.148;2024-02-23T01:22:15;5.30;99.90
10278;DHT22;5184;51.376;7.148;2024-02-23T01:24:43;5.20;99.90
10278;DHT22;5184;51.376;7.148;2024-02-23T01:27:10;5.20;99.90
10278;DHT22;5184;51.376;7.148;2024-02-23T01:29:37;5.10;99.90
10278;DHT22;5184;51.376;7.148;2024-02-23T01:32:05;5.10;99.90
10278;DHT22;5184;51.376;7.148;2024-02-23T01:34:32;5.10;99.90
10278;DHT22;5184;51.376;7.148;2024-02-23T01:37:00;5.10;99.90
10278;DHT22;5184;51.376;7.148;2024-02-23T01:39:27;5.10;99.90
10278;DHT22;5184;51.376;7.148;2024-02-23T01:41:54;5.10;99.90
10278;DHT22;5184;51.376;7.148;2024-02-23T01:44:22;5.10;99.90
10278;DHT22;5184;51.376;7.148;2024-02-23T01:46:49;5.20;99.90
10278;DHT22;5184;51.376;7.148;2024-02-23T01:49:16;5.20;99.90
10278;DHT22;5184;51.376;7.148;2024-02-23T01:51:43;5.20;99.90
10278;DHT22;5184;51.376;7.148;2024-02-23T01:54:09;5.30;99.90
10278;DHT22;5184;51.376;7.148;2024-02-23T01:56:36;5.30;99.90
10278;DHT22;5184;51.376;7.148;2024-02-23T01:59:02;5.40;99.90
10278;DHT22;5184;51.376;7.148;2024-02-23T02:01:29;5.50;99.90
10278;DHT22;5184;51.376;7.148;2024-02-23T02:03:55;5.50;99.90
10278;DHT22;5184;51.376;7.148;2024-02-23T02:06:23;5.50;99.90
10278;DHT22;5184;51.376;7.148;2024-02-23T02:08:50;5.50;99.90
10278;DHT22;5184;51.376;7.148;2024-02-23T02:11:17;5.50;99.90
10278;DHT22;5184;51.376;7.148;2024-02-23T02:13:45;5.50;99.90
10278;DHT22;5184;51.376;7.148;2024-02-23T02:16:12;5.50;99.90
10278;DHT22;5184;51.376;7.148;2024-02-23T02:18:39;5.50;99.90
10278;DHT22;5184;51.376;7.148;2024-02-23T02:21:07;5.50;99.90
10278;DHT22;5184;51.376;7.148;2024-02-23T02:23:34;5.50;99.90
10278;DHT22;5184;51.376;7.148;2024-02-23T02:26:01;5.50;99.90
10278;DHT22;5184;51.376;7.148;2024-02-23T02:28:27;5.50;99.90
10278;DHT22;5184;51.376;7.148;2024-02-23T02:30:54;5.50;99.90
10278;DHT22;5184;51.376;7.148;2024-02-23T02:33:21;5.50;99.90
10278;DHT22;5184;51.376;7.148;2024-02-23T02:35:47;5.50;99.90
10278;DHT22;5184;51.376;7.148;2024-02-23T02:38:14;5.50;99.90
10278;DHT22;5184;51.376;7.148;2024-02-23T02:40:40;5.50;99.90
10278;DHT22;5184;51.376;7.148;2024-02-23T02:43:07;5.50;99.90
10278;DHT22;5184;51.376;7.148;2024-02-23T02:45:33;5.50;99.90
10278;DHT22;5184;51.376;7.148;2024-02-23T02:48:01;5.40;99.90
10278;DHT22;5184;51.376;7.148;2024-02-23T02:50:28;5.40;99.90
10278;DHT22;5184;51.376;7.148;2024-02-23T02:52:56;5.40;99.90
10278;DHT22;5184;51.376;7.148;2024-02-23T02:55:23;5.30;99.90
10278;DHT22;5184;51.376;7.148;2024-02-23T02:57:50;5.30;99.90
10278;DHT22;5184;51.376;7.148;2024-02-23T03:00:18;5.30;99.90
10278;DHT22;5184;51.376;7.148;2024-02-23T03:02:45;5.30;99.90
10278;DHT22;5184;51.376;7.148;2024-02-23T03:05:12;5.30;99.90
10278;DHT22;5184;51.376;7.148;2024-02-23T03:07:40;5.30;99.90
10278;DHT22;5184;51.376;7.148;2024-02-23T03:10:07;5.30;99.90
10278;DHT22;5184;51.376;7.148;2024-02-23T03:12:33;5.30;99.90
10278;DHT22;5184;51.376;7.148;2024-02-23T03:15:00;5.30;99.90
10278;DHT22;5184;51.376;7.148;2024-02-23T03:17:26;5.30;99.90
10278;DHT22;5184;51.376;7.148;2024-02-23T03:19:54;5.30;99.90
10278;DHT22;5184;51.376;7.148;2024-02-23T03:22:21;5.30;99.90
10278;DHT22;5184;51.376;7.148;2024-02-23T03:24:48;5.30;99.90
10278;DHT22;5184;51.376;7.148;2024-02-23T03:27:16;5.30;99.90
10278;DHT22;5184;51.376;7.148;2024-02-23T03:29:43;5.30;99.90
10278;DHT22;5184;51.376;7.148;2024-02-23T03:32:10;5.30;99.90
10278;DHT22;5184;51.376;7.148;2024-02-23T03:34:38;5.30;99.90
10278;DHT22;5184;51.376;7.148;2024-02-23T03:37:05;5.30;99.90
10278;DHT22;5184;51.376;7.148;2024-02-23T03:39:32;5.20;99.90
10278;DHT22;5184;51.376;7.148;2024-02-23T03:41:58;5.20;99.90
10278;DHT22;5184;51.376;7.148;2024-02-23T03:44:25;5.30;99.90
10278;DHT22;5184;51.376;7.148;2024-02-23T03:46:52;5.30;99.90
10278;DHT22;5184;51.376;7.148;2024-02-23T03:49:18;5.30;99.90
10278;DHT22;5184;51.376;7.148;2024-02-23T03:51:45;5.30;99.90
10278;DHT22;5184;51.376;7.148;2024-02-23T03:54:11;5.30;99.90
10278;DHT22;5184;51.376;7.148;2024-02-23T03:56:40;5.30;99.90
10278;DHT22;5184;51.376;7.148;2024-02-23T03:59:06;5.20;99.90
10278;DHT22;5184;51.376;7.148;2024-02-23T04:01:33;5.20;99.90
10278;DHT22;5184;51.376;7.148;2024-02-23T04:03:59;5.30;99.90
10278;DHT22;5184;51.376;7.148;2024-02-23T04:06:26;5.30;99.90
10278;DHT22;5184;51.376;7.148;2024-02-23T04:08:52;5.20;99.90
10278;DHT22;5184;51.376;7.148;2024-02-23T04:11:19;5.20;99.90
10278;DHT22;5184;51.376;7.148;2024-02-23T04:13:46;5.30;99.90
10278;DHT22;5184;51.376;7.148;2024-02-23T04:16:14;5.20;99.90
10278;DHT22;5184;51.376;7.148;2024-02-23T04:18:41;5.20;99.90
10278;DHT22;5184;51.376;7.148;2024-02-23T04:21:08;5.30;99.90
10278;DHT22;5184;51.376;7.148;2024-02-23T04:23:36;5.30;99.90
10278;DHT22;5184;51.376;7.148;2024-02-23T04:26:02;5.20;99.90
10278;DHT22;5184;51.376;7.148;2024-02-23T04:28:29;5.30;99.90
10278;DHT22;5184;51.376;7.148;2024-02-23T04:30:56;5.30;99.90
10278;DHT22;5184;51.376;7.148;2024-02-23T04:33:22;5.30;99.90
10278;DHT22;5184;51.376;7.148;2024-02-23T04:35:49;5.30;99.90
10278;DHT22;5184;51.376;7.148;2024-02-23T04:38:17;5.30;99.90
10278;DHT22;5184;51.376;7.148;2024-02-23T04:40:44;5.30;99.90
10278;DHT22;5184;51.376;7.148;2024-02-23T04:43:12;5.30;99.90
10278;DHT22;5184;51.376;7.148;2024-02-23T04:45:39;5.30;99.90
10278;DHT22;5184;51.376;7.148;2024-02-23T04:48:07;5.30;99.90
10278;DHT22;5184;51.376;7.148;2024-02-23T04:50:34;5.30;99.90
10278;DHT22;5184;51.376;7.148;2024-02-23T04:53:01;5.30;99.90
10278;DHT22;5184;51.376;7.148;2024-02-23T04:55:29;5.30;99.90
10278;DHT22;5184;51.376;7.148;2024-02-23T04:57:56;5.30;99.90
10278;DHT22;5184;51.376;7.148;2024-02-23T05:00:23;5.30;99.90
10278;DHT22;5184;51.376;7.148;2024-02-23T05:02:50;5.30;99.90
10278;DHT22;5184;51.376;7.148;2024-02-23T05:05:17;5.30;99.90
10278;DHT22;5184;51.376;7.148;2024-02-23T05:07:45;5.30;99.90
10278;DHT22;5184;51.376;7.148;2024-02-23T05:10:12;5.30;99.90
10278;DHT22;5184;51.376;7.148;2024-02-23T05:12:40;5.40;99.90
10278;DHT22;5184;51.376;7.148;2024-02-23T05:15:07;5.40;99.90
10278;DHT22;5184;51.376;7.148;2024-02-23T05:17:34;5.30;99.90
10278;DHT22;5184;51.376;7.148;2024-02-23T05:20:00;5.40;99.90
10278;DHT22;5184;51.376;7.148;2024-02-23T05:22:27;5.40;99.90
10278;DHT22;5184;51.376;7.148;2024-02-23T05:24:54;5.40;99.90
10278;DHT22;5184;51.376;7.148;2024-02-23T05:27:22;5.40;99.90
10278;DHT22;5184;51.376;7.148;2024-02-23T05:29:49;5.30;99.90
10278;DHT22;5184;51.376;7.148;2024-02-23T05:32:16;5.30;99.90
10278;DHT22;5184;51.376;7.148;2024-02-23T05:34:44;5.30;99.90
10278;DHT22;5184;51.376;7.148;2024-02-23T05:37:11;5.30;99.90
10278;DHT22;5184;51.376;7.148;2024-02-23T05:39:38;5.30;99.90
10278;DHT22;5184;51.376;7.148;2024-02-23T05:42:06;5.30;99.90
10278;DHT22;5184;51.376;7.148;2024-02-23T05:44:32;5.30;99.90
10278;DHT22;5184;51.376;7.148;2024-02-23T05:46:59;5.30;99.90
10278;DHT22;5184;51.376;7.148;2024-02-23T05:49:26;5.20;99.90
10278;DHT22;5184;51.376;7.148;2024-02-23T05:51:52;5.20;99.90
10278;DHT22;5184;51.376;7.148;2024-02-23T05:54:19;5.10;99.90
10278;DHT22;5184;51.376;7.148;2024-02-23T05:56:47;5.00;99.90
10278;DHT22;5184;51.376;7.148;2024-02-23T05:59:14;4.90;99.90
10278;DHT22;5184;51.376;7.148;2024-02-23T06:01:42;4.90;99.90
10278;DHT22;5184;51.376;7.148;2024-02-23T06:04:09;4.90;99.90
10278;DHT22;5184;51.376;7.148;2024-02-23T06:06:36;4.80;99.90
10278;DHT22;5184;51.376;7.148;2024-02-23T06:09:03;4.80;99.90
10278;DHT22;5184;51.376;7.148;2024-02-23T06:11:29;4.80;99.90
10278;DHT22;5184;51.376;7.148;2024-02-23T06:13:56;4.80;99.90
10278;DHT22;5184;51.376;7.148;2024-02-23T06:16:23;4.80;99.90
10278;DHT22;5184;51.376;7.148;2024-02-23T06:18:49;4.80;99.90
10278;DHT22;5184;51.376;7.148;2024-02-23T06:21:16;4.80;99.90
10278;DHT22;5184;51.376;7.148;2024-02-23T06:23:43;4.80;99.90
10278;DHT22;5184;51.376;7.148;2024-02-23T06:26:09;4.80;99.90
10278;DHT22;5184;51.376;7.148;2024-02-23T06:28:36;4.80;99.90
10278;DHT22;5184;51.376;7.148;2024-02-23T06:31:03;4.90;99.90
10278;DHT22;5184;51.376;7.148;2024-02-23T06:33:30;4.90;99.90
10278;DHT22;5184;51.376;7.148;2024-02-23T06:35:56;5.00;99.90
10278;DHT22;5184;51.376;7.148;2024-02-23T06:38:24;5.00;99.90
10278;DHT22;5184;51.376;7.148;2024-02-23T06:40:51;4.90;99.90
10278;DHT22;5184;51.376;7.148;2024-02-23T06:43:18;4.90;99.90
10278;DHT22;5184;51.376;7.148;2024-02-23T06:45:44;4.90;99.90
10278;DHT22;5184;51.376;7.148;2024-02-23T06:48:11;4.90;99.90
10278;DHT22;5184;51.376;7.148;2024-02-23T06:50:37;5.00;99.90
10278;DHT22;5184;51.376;7.148;2024-02-23T06:53:04;5.00;99.90
10278;DHT22;5184;51.376;7.148;2024-02-23T06:55:31;4.90;99.90
10278;DHT22;5184;51.376;7.148;2024-02-23T06:57:57;4.90;99.90
10278;DHT22;5184;51.376;7.148;2024-02-23T07:00:25;4.90;99.90
10278;DHT22;5184;51.376;7.148;2024-02-23T07:02:52;4.90;99.90
10278;DHT22;5184;51.376;7.148;2024-02-23T07:08:14;4.90;99.90
10278;DHT22;5184;51.376;7.148;2024-02-23T07:10:40;4.90;99.90
10278;DHT22;5184;51.376;7.148;2024-02-23T07:13:08;4.50;99.90
10278;DHT22;5184;51.376;7.148;2024-02-23T07:15:35;4.90;99.90
10278;DHT22;5184;51.376;7.148;2024-02-23T07:18:04;4.90;99.90
10278;DHT22;5184;51.376;7.148;2024-02-23T07:20:30;4.90;99.90
10278;DHT22;5184;51.376;7.148;2024-02-23T07:22:57;4.90;99.90
10278;DHT22;5184;51.376;7.148;2024-02-23T07:25:23;4.90;99.90
10278;DHT22;5184;51.376;7.148;2024-02-23T07:27:50;4.90;99.90
10278;DHT22;5184;51.376;7.148;2024-02-23T07:30:17;4.90;99.90
10278;DHT22;5184;51.376;7.148;2024-02-23T07:32:44;4.90;99.90
10278;DHT22;5184;51.376;7.148;2024-02-23T07:35:11;4.90;99.90
10278;DHT22;5184;51.376;7.148;2024-02-23T07:37:39;5.00;99.90
10278;DHT22;5184;51.376;7.148;2024-02-23T07:40:06;5.00;99.90
10278;DHT22;5184;51.376;7.148;2024-02-23T07:42:34;5.00;99.90
10278;DHT22;5184;51.376;7.148;2024-02-23T07:45:03;5.00;99.90
10278;DHT22;5184;51.376;7.148;2024-02-23T07:47:31;4.80;99.90
10278;DHT22;5184;51.376;7.148;2024-02-23T07:49:57;5.00;99.90
10278;DHT22;5184;51.376;7.148;2024-02-23T07:52:24;5.00;99.90
10278;DHT22;5184;51.376;7.148;2024-02-23T07:54:52;5.30;99.90
10278;DHT22;5184;51.376;7.148;2024-02-23T07:57:19;5.30;99.90
10278;DHT22;5184;51.376;7.148;2024-02-23T07:59:45;5.40;99.90
10278;DHT22;5184;51.376;7.148;2024-02-23T08:02:12;5.50;99.90
10278;DHT22;5184;51.376;7.148;2024-02-23T08:04:38;5.60;99.90
10278;DHT22;5184;51.376;7.148;2024-02-23T08:07:05;5.60;99.90
10278;DHT22;5184;51.376;7.148;2024-02-23T08:09:32;5.70;99.90
10278;DHT22;5184;51.376;7.148;2024-02-23T08:12:00;5.70;99.90
10278;DHT22;5184;51.376;7.148;2024-02-23T08:14:27;5.80;99.90
10278;DHT22;5184;51.376;7.148;2024-02-23T08:16:54;5.70;99.90
10278;DHT22;5184;51.376;7.148;2024-02-23T08:19:22;5.70;99.90
10278;DHT22;5184;51.376;7.148;2024-02-23T08:21:49;5.80;99.90
10278;DHT22;5184;51.376;7.148;2024-02-23T08:24:16;5.90;99.90
10278;DHT22;5184;51.376;7.148;2024-02-23T08:26:44;6.00;99.90
10278;DHT22;5184;51.376;7.148;2024-02-23T08:29:11;6.00;99.90
10278;DHT22;5184;51.376;7.148;2024-02-23T08:31:38;6.00;99.90
10278;DHT22;5184;51.376;7.148;2024-02-23T08:34:04;6.00;99.90
10278;DHT22;5184;51.376;7.148;2024-02-23T08:36:31;6.00;91.80
10278;DHT22;5184;51.376;7.148;2024-02-23T08:38:58;6.00;95.80
10278;DHT22;5184;51.376;7.148;2024-02-23T08:41:25;6.10;72.80
10278;DHT22;5184;51.376;7.148;2024-02-23T08:43:52;6.20;71.60
10278;DHT22;5184;51.376;7.148;2024-02-23T08:46:20;6.30;63.20
10278;DHT22;5184;51.376;7.148;2024-02-23T08:48:47;6.30;35.00
10278;DHT22;5184;51.376;7.148;2024-02-23T08:51:15;6.40;35.70
10278;DHT22;5184;51.376;7.148;2024-02-23T08:53:42;6.40;22.80
10278;DHT22;5184;51.376;7.148;2024-02-23T08:56:09;6.40;18.50
10278;DHT22;5184;51.376;7.148;2024-02-23T08:58:35;6.50;17.40
10278;DHT22;5184;51.376;7.148;2024-02-23T09:01:02;6.50;15.20
10278;DHT22;5184;51.376;7.148;2024-02-23T09:03:29;6.50;27.50
10278;DHT22;5184;51.376;7.148;2024-02-23T09:05:55;6.50;26.20
10278;DHT22;5184;51.376;7.148;2024-02-23T09:08:23;6.50;22.10
10278;DHT22;5184;51.376;7.148;2024-02-23T09:10:50;6.40;29.90
10278;DHT22;5184;51.376;7.148;2024-02-23T09:13:17;6.50;18.90
10278;DHT22;5184;51.376;7.148;2024-02-23T09:15:45;6.50;27.10
10278;DHT22;5184;51.376;7.148;2024-02-23T09:18:12;6.60;24.20
10278;DHT22;5184;51.376;7.148;2024-02-23T09:20:39;6.60;22.70
10278;DHT22;5184;51.376;7.148;2024-02-23T09:23:07;6.60;22.00
10278;DHT22;5184;51.376;7.148;2024-02-23T09:25:34;6.80;11.80
10278;DHT22;5184;51.376;7.148;2024-02-23T09:28:01;6.90;1.00
10278;DHT22;5184;51.376;7.148;2024-02-23T09:30:29;6.90;1.00
10278;DHT22;5184;51.376;7.148;2024-02-23T09:32:56;6.90;1.00
10278;DHT22;5184;51.376;7.148;2024-02-23T09:35:23;7.00;1.00
10278;DHT22;5184;51.376;7.148;2024-02-23T09:37:51;7.00;1.00
10278;DHT22;5184;51.376;7.148;2024-02-23T09:40:18;7.00;1.00
10278;DHT22;5184;51.376;7.148;2024-02-23T09:42:50;7.10;1.00
10278;DHT22;5184;51.376;7.148;2024-02-23T09:45:15;7.10;1.00
10278;DHT22;5184;51.376;7.148;2024-02-23T09:47:42;7.10;1.00
10278;DHT22;5184;51.376;7.148;2024-02-23T09:50:09;7.10;1.00
10278;DHT22;5184;51.376;7.148;2024-02-23T09:52:36;7.30;1.00
10278;DHT22;5184;51.376;7.148;2024-02-23T09:55:03;7.30;1.00
10278;DHT22;5184;51.376;7.148;2024-02-23T09:57:30;7.50;1.00
10278;DHT22;5184;51.376;7.148;2024-02-23T09:59:57;7.40;1.00
10278;DHT22;5184;51.376;7.148;2024-02-23T10:02:24;7.40;1.00
10278;DHT22;5184;51.376;7.148;2024-02-23T10:04:51;7.40;1.00
10278;DHT22;5184;51.376;7.148;2024-02-23T10:07:18;7.40;1.00
10278;DHT22;5184;51.376;7.148;2024-02-23T10:09:44;7.40;1.00
10278;DHT22;5184;51.376;7.148;2024-02-23T10:12:11;7.40;1.00
10278;DHT22;5184;51.376;7.148;2024-02-23T10:14:40;7.40;1.00
10278;DHT22;5184;51.376;7.148;2024-02-23T10:17:06;7.40;1.00
10278;DHT22;5184;51.376;7.148;2024-02-23T10:19:33;7.40;1.00
10278;DHT22;5184;51.376;7.148;2024-02-23T10:22:00;7.40;1.00
10278;DHT22;5184;51.376;7.148;2024-02-23T10:24:26;7.50;1.00
10278;DHT22;5184;51.376;7.148;2024-02-23T10:26:53;7.50;1.00
10278;DHT22;5184;51.376;7.148;2024-02-23T10:29:19;7.50;1.00
10278;DHT22;5184;51.376;7.148;2024-02-23T10:31:47;7.70;1.00
10278;DHT22;5184;51.376;7.148;2024-02-23T10:34:14;7.70;1.00
10278;DHT22;5184;51.376;7.148;2024-02-23T10:36:42;7.90;1.00
10278;DHT22;5184;51.376;7.148;2024-02-23T10:39:09;7.80;1.00
10278;DHT22;5184;51.376;7.148;2024-02-23T10:41:35;7.80;1.00
10278;DHT22;5184;51.376;7.148;2024-02-23T10:44:03;7.80;1.00
10278;DHT22;5184;51.376;7.148;2024-02-23T10:46:30;7.80;1.00
10278;DHT22;5184;51.376;7.148;2024-02-23T10:48:56;7.80;1.00
10278;DHT22;5184;51.376;7.148;2024-02-23T10:51:23;7.90;1.00
10278;DHT22;5184;51.376;7.148;2024-02-23T10:53:49;8.00;1.00
10278;DHT22;5184;51.376;7.148;2024-02-23T10:56:16;8.00;1.00
10278;DHT22;5184;51.376;7.148;2024-02-23T10:58:42;7.90;1.00
10278;DHT22;5184;51.376;7.148;2024-02-23T11:01:09;8.10;1.00
10278;DHT22;5184;51.376;7.148;2024-02-23T11:03:36;8.20;1.00
10278;DHT22;5184;51.376;7.148;2024-02-23T11:06:05;8.20;1.00
10278;DHT22;5184;51.376;7.148;2024-02-23T11:08:29;8.20;1.00
10278;DHT22;5184;51.376;7.148;2024-02-23T11:10:56;8.30;1.00
10278;DHT22;5184;51.376;7.148;2024-02-23T11:13:29;8.30;1.00
10278;DHT22;5184;51.376;7.148;2024-02-23T11:16:01;8.30;1.00
10278;DHT22;5184;51.376;7.148;2024-02-23T11:18:26;8.30;1.00
10278;DHT22;5184;51.376;7.148;2024-02-23T11:20:53;8.20;1.00
10278;DHT22;5184;51.376;7.148;2024-02-23T11:23:20;8.20;1.00
10278;DHT22;5184;51.376;7.148;2024-02-23T11:26:05;8.20;1.00
10278;DHT22;5184;51.376;7.148;2024-02-23T11:28:32;8.20;1.00
10278;DHT22;5184;51.376;7.148;2024-02-23T11:30:59;8.20;1.00
10278;DHT22;5184;51.376;7.148;2024-02-23T11:33:27;8.20;1.00
10278;DHT22;5184;51.376;7.148;2024-02-23T11:36:04;8.20;1.00
10278;DHT22;5184;51.376;7.148;2024-02-23T11:38:21;8.10;1.00
10278;DHT22;5184;51.376;7.148;2024-02-23T11:40:48;8.10;1.00
10278;DHT22;5184;51.376;7.148;2024-02-23T11:43:15;8.10;1.00
10278;DHT22;5184;51.376;7.148;2024-02-23T11:45:42;8.10;1.00
10278;DHT22;5184;51.376;7.148;2024-02-23T11:48:09;8.20;1.00
10278;DHT22;5184;51.376;7.148;2024-02-23T11:50:36;8.20;1.00
10278;DHT22;5184;51.376;7.148;2024-02-23T11:53:02;8.10;1.00
10278;DHT22;5184;51.376;7.148;2024-02-23T11:55:29;8.00;1.00
10278;DHT22;5184;51.376;7.148;2024-02-23T11:57:56;8.00;1.00
10278;DHT22;5184;51.376;7.148;2024-02-23T12:00:23;8.00;1.00
10278;DHT22;5184;51.376;7.148;2024-02-23T12:02:49;8.20;1.00
10278;DHT22;5184;51.376;7.148;2024-02-23T12:05:16;8.20;1.00
10278;DHT22;5184;51.376;7.148;2024-02-23T12:07:42;8.20;1.00
10278;DHT22;5184;51.376;7.148;2024-02-23T12:10:09;8.30;1.00
10278;DHT22;5184;51.376;7.148;2024-02-23T12:12:35;8.30;1.00
10278;DHT22;5184;51.376;7.148;2024-02-23T12:15:02;8.10;1.00
10278;DHT22;5184;51.376;7.148;2024-02-23T12:17:28;8.10;1.00
10278;DHT22;5184;51.376;7.148;2024-02-23T12:19:59;8.10;1.00
10278;DHT22;5184;51.376;7.148;2024-02-23T12:22:25;8.20;1.00
10278;DHT22;5184;51.376;7.148;2024-02-23T12:24:53;8.30;1.00
10278;DHT22;5184;51.376;7.148;2024-02-23T12:27:20;8.30;1.00
10278;DHT22;5184;51.376;7.148;2024-02-23T12:29:52;8.30;1.00
10278;DHT22;5184;51.376;7.148;2024-02-23T12:32:19;8.30;1.00
10278;DHT22;5184;51.376;7.148;2024-02-23T12:34:45;8.30;1.00
10278;DHT22;5184;51.376;7.148;2024-02-23T12:37:15;8.20;1.00
10278;DHT22;5184;51.376;7.148;2024-02-23T12:39:41;8.20;1.00
10278;DHT22;5184;51.376;7.148;2024-02-23T12:42:09;8.60;1.00
10278;DHT22;5184;51.376;7.148;2024-02-23T12:44:35;8.60;1.00
10278;DHT22;5184;51.376;7.148;2024-02-23T12:47:02;8.60;1.00
10278;DHT22;5184;51.376;7.148;2024-02-23T12:49:29;8.50;1.00
10278;DHT22;5184;51.376;7.148;2024-02-23T12:51:56;8.50;1.00
10278;DHT22;5184;51.376;7.148;2024-02-23T12:54:22;8.60;1.00
10278;DHT22;5184;51.376;7.148;2024-02-23T12:56:49;8.50;1.00
10278;DHT22;5184;51.376;7.148;2024-02-23T12:59:15;8.60;1.00
10278;DHT22;5184;51.376;7.148;2024-02-23T13:01:43;8.80;1.00
10278;DHT22;5184;51.376;7.148;2024-02-23T13:04:10;8.70;1.00
10278;DHT22;5184;51.376;7.148;2024-02-23T13:06:37;8.90;1.00
10278;DHT22;5184;51.376;7.148;2024-02-23T13:09:03;8.90;1.00
10278;DHT22;5184;51.376;7.148;2024-02-23T13:11:30;8.80;1.00
10278;DHT22;5184;51.376;7.148;2024-02-23T13:13:56;8.70;1.00
10278;DHT22;5184;51.376;7.148;2024-02-23T13:16:23;8.50;1.00
10278;DHT22;5184;51.376;7.148;2024-02-23T13:18:50;8.40;1.00
10278;DHT22;5184;51.376;7.148;2024-02-23T13:21:17;8.30;1.00
10278;DHT22;5184;51.376;7.148;2024-02-23T13:23:43;8.20;1.00
10278;DHT22;5184;51.376;7.148;2024-02-23T13:26:09;8.20;1.00
10278;DHT22;5184;51.376;7.148;2024-02-23T13:28:36;8.20;1.00
10278;DHT22;5184;51.376;7.148;2024-02-23T13:31:03;8.20;7.70
10278;DHT22;5184;51.376;7.148;2024-02-23T13:33:29;8.10;1.00
10278;DHT22;5184;51.376;7.148;2024-02-23T13:35:56;8.30;15.80
10278;DHT22;5184;51.376;7.148;2024-02-23T13:38:22;8.60;8.20
10278;DHT22;5184;51.376;7.148;2024-02-23T13:40:49;8.80;1.00
10278;DHT22;5184;51.376;7.148;2024-02-23T13:43:16;8.90;1.00
10278;DHT22;5184;51.376;7.148;2024-02-23T13:45:48;8.90;1.00
10278;DHT22;5184;51.376;7.148;2024-02-23T13:48:14;8.90;1.00
10278;DHT22;5184;51.376;7.148;2024-02-23T13:50:40;8.90;1.00
10278;DHT22;5184;51.376;7.148;2024-02-23T13:53:07;9.00;1.00
10278;DHT22;5184;51.376;7.148;2024-02-23T13:55:33;9.00;1.00
10278;DHT22;5184;51.376;7.148;2024-02-23T13:58:00;9.00;1.00
10278;DHT22;5184;51.376;7.148;2024-02-23T14:00:27;9.00;1.00
10278;DHT22;5184;51.376;7.148;2024-02-23T14:02:53;9.00;1.00
10278;DHT22;5184;51.376;7.148;2024-02-23T14:05:20;9.00;1.00
10278;DHT22;5184;51.376;7.148;2024-02-23T14:07:46;9.10;1.00
10278;DHT22;5184;51.376;7.148;2024-02-23T14:10:13;9.00;1.00
10278;DHT22;5184;51.376;7.148;2024-02-23T14:12:40;9.00;1.00
10278;DHT22;5184;51.376;7.148;2024-02-23T14:15:07;9.00;1.00
10278;DHT22;5184;51.376;7.148;2024-02-23T14:17:33;9.00;1.00
10278;DHT22;5184;51.376;7.148;2024-02-23T14:20:00;8.90;1.00
10278;DHT22;5184;51.376;7.148;2024-02-23T14:22:26;8.90;1.00
10278;DHT22;5184;51.376;7.148;2024-02-23T14:24:54;9.00;1.00
10278;DHT22;5184;51.376;7.148;2024-02-23T14:27:20;9.20;1.00
10278;DHT22;5184;51.376;7.148;2024-02-23T14:29:47;9.30;1.00
10278;DHT22;5184;51.376;7.148;2024-02-23T14:32:14;9.10;1.00
10278;DHT22;5184;51.376;7.148;2024-02-23T14:34:40;8.80;1.00
10278;DHT22;5184;51.376;7.148;2024-02-23T14:37:07;8.60;1.00
10278;DHT22;5184;51.376;7.148;2024-02-23T14:39:33;8.50;1.00
10278;DHT22;5184;51.376;7.148;2024-02-23T14:42:00;8.50;1.00
10278;DHT22;5184;51.376;7.148;2024-02-23T14:44:26;8.50;1.00
10278;DHT22;5184;51.376;7.148;2024-02-23T14:46:53;8.40;1.00
10278;DHT22;5184;51.376;7.148;2024-02-23T14:49:20;8.40;1.00
10278;DHT22;5184;51.376;7.148;2024-02-23T14:51:47;8.30;1.00
10278;DHT22;5184;51.376;7.148;2024-02-23T14:54:13;8.40;1.00
10278;DHT22;5184;51.376;7.148;2024-02-23T14:56:39;8.40;1.00
10278;DHT22;5184;51.376;7.148;2024-02-23T14:59:07;8.40;1.00
10278;DHT22;5184;51.376;7.148;2024-02-23T15:01:33;8.50;1.00
10278;DHT22;5184;51.376;7.148;2024-02-23T15:03:59;8.50;1.00
10278;DHT22;5184;51.376;7.148;2024-02-23T15:06:26;8.60;1.00
10278;DHT22;5184;51.376;7.148;2024-02-23T15:08:52;8.60;1.00
10278;DHT22;5184;51.376;7.148;2024-02-23T15:11:19;8.50;1.00
10278;DHT22;5184;51.376;7.148;2024-02-23T15:13:45;8.50;1.00
10278;DHT22;5184;51.376;7.148;2024-02-23T15:16:13;8.50;1.00
10278;DHT22;5184;51.376;7.148;2024-02-23T15:18:40;8.10;11.10
10278;DHT22;5184;51.376;7.148;2024-02-23T15:21:08;8.40;1.00
10278;DHT22;5184;51.376;7.148;2024-02-23T15:23:35;8.30;19.50
10278;DHT22;5184;51.376;7.148;2024-02-23T15:26:02;8.20;28.40
10278;DHT22;5184;51.376;7.148;2024-02-23T15:28:29;8.20;22.00
10278;DHT22;5184;51.376;7.148;2024-02-23T15:30:55;8.10;22.70
10278;DHT22;5184;51.376;7.148;2024-02-23T15:33:22;8.10;35.30
10278;DHT22;5184;51.376;7.148;2024-02-23T15:35:49;8.10;47.50
10278;DHT22;5184;51.376;7.148;2024-02-23T15:38:16;8.10;39.00
10278;DHT22;5184;51.376;7.148;2024-02-23T15:40:43;8.00;34.10
10278;DHT22;5184;51.376;7.148;2024-02-23T15:43:09;8.00;43.10
10278;DHT22;5184;51.376;7.148;2024-02-23T15:45:36;7.90;31.70
10278;DHT22;5184;51.376;7.148;2024-02-23T15:48:02;7.80;58.80
10278;DHT22;5184;51.376;7.148;2024-02-23T15:50:29;7.80;98.40
10278;DHT22;5184;51.376;7.148;2024-02-23T15:52:56;7.90;99.90
10278;DHT22;5184;51.376;7.148;2024-02-23T15:55:23;7.80;99.90
10278;DHT22;5184;51.376;7.148;2024-02-23T15:57:50;7.80;99.90
10278;DHT22;5184;51.376;7.148;2024-02-23T16:00:16;7.70;99.90
10278;DHT22;5184;51.376;7.148;2024-02-23T16:02:43;7.50;99.90
10278;DHT22;5184;51.376;7.148;2024-02-23T16:05:10;8.30;99.90
10278;DHT22;5184;51.376;7.148;2024-02-23T16:07:38;8.90;99.90